San Francisco International Airport
KSFO : now visible

Airfield :











YOU CAN JOIN US ON...

 
LOGIN :

Register | Disclaimer

   EN    FR    IT 

 









Legend :    VFR   Marginal VFR   IFR   Intensive IFR   Very Intensive IFR
Visi :
Ceiling :
>= 8 km
>= 3000ft
5 to 8 km
1000 to 3000 ft
1500m to 5 km
500 to 1000 ft
800 to 1500m
200 to 500 ft
< 800m
< 200 ft
Symbols :   Thunderstorms  Fog  Heavy snow  Heavy precipitations  Wind > 20 kt






- Airport Elevation : 13 ft
- IATA code : SFO


KSFO - San Francisco International

CURRENT METAR :
  • 071456Z 00000KT 10SM FEW008 FEW020 16/12 A2993 RMK AO2 SLP136 T01610117 53012

EXPIRED METARs :
  • 071356Z 32007KT 10SM FEW008 FEW012 14/12 A2992 RMK AO2 SLP132 T01440117
  • 071256Z 17004KT 10SM FEW005 FEW012 15/11 A2990 RMK AO2 SLP125 T01500111

TAF KSFO
Valid from the 07 at 12:00 until the 08 at 18:00 UTC


071130Z 0712/0818 26008KT P6SM SCT010
FM071630 25008KT P6SM SCT012
FM072100 28012KT P6SM SKC
FM072300 28016G22KT P6SM FEW008
FM080300 28011KT P6SM FEW008
FM080800 29006KT P6SM SCT010
KZOA FIR / North America



MET'MAP, your aeronautical weather chart ! - Copyright ORBIFLY December 2007 - Disclaimer

ORBIFLY MET'MAP TEAM :

Programming & Development : Alexandra Zaïnal
Concept & original design : Baudouin d'Aumeries
Assistance for programming : Marc-Olivier Méhu
Technical & hardware support : Manuel Goepfert

Contact : metmap@orbifly.com




SOURCES & CREDITS :

   NOAA       Earth
Advisory